sensor_id;sensor_type;location;lat;lon;timestamp;P1;P2;P0
63305;PMS5003;50735;52.060;1.248;2022-07-01T00:01:16;3;3;
63305;PMS5003;50735;52.060;1.248;2022-07-01T00:03:43;4;4;
63305;PMS5003;50735;52.060;1.248;2022-07-01T00:06:10;5;3;
63305;PMS5003;50735;52.060;1.248;2022-07-01T00:08:38;4;4;
63305;PMS5003;50735;52.060;1.248;2022-07-01T00:11:04;4;4;
63305;PMS5003;50735;52.060;1.248;2022-07-01T00:13:32;5;5;
63305;PMS5003;50735;52.060;1.248;2022-07-01T00:15:58;3;3;
63305;PMS5003;50735;52.060;1.248;2022-07-01T00:18:26;4;4;
63305;PMS5003;50735;52.060;1.248;2022-07-01T00:20:53;3;3;
63305;PMS5003;50735;52.060;1.248;2022-07-01T00:23:20;4;2;
63305;PMS5003;50735;52.060;1.248;2022-07-01T00:25:47;5;4;
63305;PMS5003;50735;52.060;1.248;2022-07-01T00:28:15;7;4;
63305;PMS5003;50735;52.060;1.248;2022-07-01T00:30:42;6;3;
63305;PMS5003;50735;52.060;1.248;2022-07-01T00:33:09;11;5;
63305;PMS5003;50735;52.060;1.248;2022-07-01T00:35:35;7;5;
63305;PMS5003;50735;52.060;1.248;2022-07-01T00:38:02;7;4;
63305;PMS5003;50735;52.060;1.248;2022-07-01T00:40:29;6;5;
63305;PMS5003;50735;52.060;1.248;2022-07-01T00:42:57;5;5;
63305;PMS5003;50735;52.060;1.248;2022-07-01T00:45:24;4;4;
63305;PMS5003;50735;52.060;1.248;2022-07-01T00:47:51;3;3;
63305;PMS5003;50735;52.060;1.248;2022-07-01T00:50:18;7;5;
63305;PMS5003;50735;52.060;1.248;2022-07-01T00:52:45;6;4;
63305;PMS5003;50735;52.060;1.248;2022-07-01T00:55:13;4;4;
63305;PMS5003;50735;52.060;1.248;2022-07-01T00:57:42;5;3;
63305;PMS5003;50735;52.060;1.248;2022-07-01T01:00:11;4;4;
63305;PMS5003;50735;52.060;1.248;2022-07-01T01:02:40;5;5;
63305;PMS5003;50735;52.060;1.248;2022-07-01T01:05:08;7;5;
63305;PMS5003;50735;52.060;1.248;2022-07-01T01:07:36;5;5;
63305;PMS5003;50735;52.060;1.248;2022-07-01T01:10:03;6;5;
63305;PMS5003;50735;52.060;1.248;2022-07-01T01:12:30;7;6;
63305;PMS5003;50735;52.060;1.248;2022-07-01T01:14:57;5;3;
63305;PMS5003;50735;52.060;1.248;2022-07-01T01:17:23;7;7;
63305;PMS5003;50735;52.060;1.248;2022-07-01T01:19:51;5;5;
63305;PMS5003;50735;52.060;1.248;2022-07-01T01:22:18;8;6;
63305;PMS5003;50735;52.060;1.248;2022-07-01T01:24:46;6;5;
63305;PMS5003;50735;52.060;1.248;2022-07-01T01:27:14;6;6;
63305;PMS5003;50735;52.060;1.248;2022-07-01T01:29:41;6;6;
63305;PMS5003;50735;52.060;1.248;2022-07-01T01:32:09;6;6;
63305;PMS5003;50735;52.060;1.248;2022-07-01T01:34:37;6;6;
63305;PMS5003;50735;52.060;1.248;2022-07-01T01:37:05;13;5;
63305;PMS5003;50735;52.060;1.248;2022-07-01T01:39:33;5;5;
63305;PMS5003;50735;52.060;1.248;2022-07-01T01:42:00;6;6;
63305;PMS5003;50735;52.060;1.248;2022-07-01T01:44:27;8;6;
63305;PMS5003;50735;52.060;1.248;2022-07-01T01:46:54;5;5;
63305;PMS5003;50735;52.060;1.248;2022-07-01T01:49:21;5;5;
63305;PMS5003;50735;52.060;1.248;2022-07-01T01:51:47;6;6;
63305;PMS5003;50735;52.060;1.248;2022-07-01T01:54:14;8;8;
63305;PMS5003;50735;52.060;1.248;2022-07-01T01:56:40;9;9;
63305;PMS5003;50735;52.060;1.248;2022-07-01T01:59:07;11;6;
63305;PMS5003;50735;52.060;1.248;2022-07-01T02:01:34;8;8;
63305;PMS5003;50735;52.060;1.248;2022-07-01T02:04:00;6;5;
63305;PMS5003;50735;52.060;1.248;2022-07-01T02:06:27;8;7;
63305;PMS5003;50735;52.060;1.248;2022-07-01T02:08:54;9;7;
63305;PMS5003;50735;52.060;1.248;2022-07-01T02:11:21;6;6;
63305;PMS5003;50735;52.060;1.248;2022-07-01T02:13:47;8;8;
63305;PMS5003;50735;52.060;1.248;2022-07-01T02:16:14;8;8;
63305;PMS5003;50735;52.060;1.248;2022-07-01T02:18:41;10;9;
63305;PMS5003;50735;52.060;1.248;2022-07-01T02:21:08;7;7;
63305;PMS5003;50735;52.060;1.248;2022-07-01T02:23:34;7;7;
63305;PMS5003;50735;52.060;1.248;2022-07-01T02:26:01;7;7;
63305;PMS5003;50735;52.060;1.248;2022-07-01T02:28:28;7;6;
63305;PMS5003;50735;52.060;1.248;2022-07-01T02:30:54;8;7;
63305;PMS5003;50735;52.060;1.248;2022-07-01T02:33:21;6;6;
63305;PMS5003;50735;52.060;1.248;2022-07-01T02:35:47;7;7;
63305;PMS5003;50735;52.060;1.248;2022-07-01T02:38:15;9;6;
63305;PMS5003;50735;52.060;1.248;2022-07-01T02:40:42;10;7;
63305;PMS5003;50735;52.060;1.248;2022-07-01T02:43:10;8;8;
63305;PMS5003;50735;52.060;1.248;2022-07-01T02:45:36;5;5;
63305;PMS5003;50735;52.060;1.248;2022-07-01T02:48:04;8;5;
63305;PMS5003;50735;52.060;1.248;2022-07-01T02:50:31;8;7;
63305;PMS5003;50735;52.060;1.248;2022-07-01T02:52:58;7;7;
63305;PMS5003;50735;52.060;1.248;2022-07-01T02:55:25;7;5;
63305;PMS5003;50735;52.060;1.248;2022-07-01T02:57:52;6;6;
63305;PMS5003;50735;52.060;1.248;2022-07-01T03:00:19;8;6;
63305;PMS5003;50735;52.060;1.248;2022-07-01T03:02:48;8;4;
63305;PMS5003;50735;52.060;1.248;2022-07-01T03:05:15;6;4;
63305;PMS5003;50735;52.060;1.248;2022-07-01T03:07:41;6;6;
63305;PMS5003;50735;52.060;1.248;2022-07-01T03:10:09;4;4;
63305;PMS5003;50735;52.060;1.248;2022-07-01T03:12:36;6;5;
63305;PMS5003;50735;52.060;1.248;2022-07-01T03:15:05;4;4;
63305;PMS5003;50735;52.060;1.248;2022-07-01T03:17:34;6;6;
63305;PMS5003;50735;52.060;1.248;2022-07-01T03:20:02;7;7;
63305;PMS5003;50735;52.060;1.248;2022-07-01T03:22:31;4;4;
63305;PMS5003;50735;52.060;1.248;2022-07-01T03:24:59;6;6;
63305;PMS5003;50735;52.060;1.248;2022-07-01T03:27:27;8;7;
63305;PMS5003;50735;52.060;1.248;2022-07-01T03:29:53;6;4;
63305;PMS5003;50735;52.060;1.248;2022-07-01T03:32:21;5;5;
63305;PMS5003;50735;52.060;1.248;2022-07-01T03:34:49;6;4;
63305;PMS5003;50735;52.060;1.248;2022-07-01T03:37:17;9;6;
63305;PMS5003;50735;52.060;1.248;2022-07-01T03:39:46;5;5;
63305;PMS5003;50735;52.060;1.248;2022-07-01T03:42:13;4;4;
63305;PMS5003;50735;52.060;1.248;2022-07-01T03:44:41;6;5;
63305;PMS5003;50735;52.060;1.248;2022-07-01T03:47:08;7;5;
63305;PMS5003;50735;52.060;1.248;2022-07-01T03:49:35;6;5;
63305;PMS5003;50735;52.060;1.248;2022-07-01T03:52:02;7;5;
63305;PMS5003;50735;52.060;1.248;2022-07-01T03:54:31;7;6;
63305;PMS5003;50735;52.060;1.248;2022-07-01T03:56:59;4;4;
63305;PMS5003;50735;52.060;1.248;2022-07-01T03:59:28;7;7;
63305;PMS5003;50735;52.060;1.248;2022-07-01T04:01:56;3;3;
63305;PMS5003;50735;52.060;1.248;2022-07-01T04:04:24;5;5;
63305;PMS5003;50735;52.060;1.248;2022-07-01T04:06:52;5;5;
63305;PMS5003;50735;52.060;1.248;2022-07-01T04:09:21;8;5;
63305;PMS5003;50735;52.060;1.248;2022-07-01T04:11:48;9;6;
63305;PMS5003;50735;52.060;1.248;2022-07-01T04:14:15;10;7;
63305;PMS5003;50735;52.060;1.248;2022-07-01T04:16:43;6;6;
63305;PMS5003;50735;52.060;1.248;2022-07-01T04:19:12;7;5;
63305;PMS5003;50735;52.060;1.248;2022-07-01T04:21:40;5;4;
63305;PMS5003;50735;52.060;1.248;2022-07-01T04:24:07;4;4;
63305;PMS5003;50735;52.060;1.248;2022-07-01T04:26:34;5;5;
63305;PMS5003;50735;52.060;1.248;2022-07-01T04:29:01;5;5;
63305;PMS5003;50735;52.060;1.248;2022-07-01T04:31:28;6;4;
63305;PMS5003;50735;52.060;1.248;2022-07-01T04:33:55;4;4;
63305;PMS5003;50735;52.060;1.248;2022-07-01T04:36:22;6;4;
63305;PMS5003;50735;52.060;1.248;2022-07-01T04:38:48;6;5;
63305;PMS5003;50735;52.060;1.248;2022-07-01T04:41:15;9;6;
63305;PMS5003;50735;52.060;1.248;2022-07-01T04:43:41;6;4;
63305;PMS5003;50735;52.060;1.248;2022-07-01T04:46:08;6;6;
63305;PMS5003;50735;52.060;1.248;2022-07-01T04:48:34;6;6;
63305;PMS5003;50735;52.060;1.248;2022-07-01T04:51:01;6;5;
63305;PMS5003;50735;52.060;1.248;2022-07-01T04:53:28;9;5;
63305;PMS5003;50735;52.060;1.248;2022-07-01T04:55:54;4;4;
63305;PMS5003;50735;52.060;1.248;2022-07-01T04:58:21;4;4;
63305;PMS5003;50735;52.060;1.248;2022-07-01T05:00:47;4;4;
63305;PMS5003;50735;52.060;1.248;2022-07-01T05:03:14;6;6;
63305;PMS5003;50735;52.060;1.248;2022-07-01T05:05:41;8;5;
63305;PMS5003;50735;52.060;1.248;2022-07-01T05:08:07;7;3;
63305;PMS5003;50735;52.060;1.248;2022-07-01T05:10:34;8;8;
63305;PMS5003;50735;52.060;1.248;2022-07-01T05:13:01;4;4;
63305;PMS5003;50735;52.060;1.248;2022-07-01T05:15:28;4;4;
63305;PMS5003;50735;52.060;1.248;2022-07-01T05:17:56;6;6;
63305;PMS5003;50735;52.060;1.248;2022-07-01T05:20:22;4;4;
63305;PMS5003;50735;52.060;1.248;2022-07-01T05:22:49;8;6;
63305;PMS5003;50735;52.060;1.248;2022-07-01T05:25:16;5;3;
63305;PMS5003;50735;52.060;1.248;2022-07-01T05:27:43;5;4;
63305;PMS5003;50735;52.060;1.248;2022-07-01T05:30:10;7;5;
63305;PMS5003;50735;52.060;1.248;2022-07-01T05:32:38;7;5;
63305;PMS5003;50735;52.060;1.248;2022-07-01T05:35:05;8;6;
63305;PMS5003;50735;52.060;1.248;2022-07-01T05:37:32;8;5;
63305;PMS5003;50735;52.060;1.248;2022-07-01T05:39:59;5;4;
63305;PMS5003;50735;52.060;1.248;2022-07-01T05:42:26;8;6;
63305;PMS5003;50735;52.060;1.248;2022-07-01T05:44:52;8;8;
63305;PMS5003;50735;52.060;1.248;2022-07-01T05:47:19;5;5;
63305;PMS5003;50735;52.060;1.248;2022-07-01T05:49:46;6;6;
63305;PMS5003;50735;52.060;1.248;2022-07-01T05:52:12;9;6;
63305;PMS5003;50735;52.060;1.248;2022-07-01T05:54:39;6;6;
63305;PMS5003;50735;52.060;1.248;2022-07-01T05:57:05;11;8;
63305;PMS5003;50735;52.060;1.248;2022-07-01T05:59:32;6;6;
63305;PMS5003;50735;52.060;1.248;2022-07-01T06:01:59;6;6;
63305;PMS5003;50735;52.060;1.248;2022-07-01T06:04:27;8;6;
63305;PMS5003;50735;52.060;1.248;2022-07-01T06:06:53;8;8;
63305;PMS5003;50735;52.060;1.248;2022-07-01T06:09:21;8;6;
63305;PMS5003;50735;52.060;1.248;2022-07-01T06:11:47;9;8;
63305;PMS5003;50735;52.060;1.248;2022-07-01T06:14:14;7;6;
63305;PMS5003;50735;52.060;1.248;2022-07-01T06:16:41;9;5;
63305;PMS5003;50735;52.060;1.248;2022-07-01T06:19:07;9;7;
63305;PMS5003;50735;52.060;1.248;2022-07-01T06:21:34;5;5;
63305;PMS5003;50735;52.060;1.248;2022-07-01T06:24:00;9;8;
63305;PMS5003;50735;52.060;1.248;2022-07-01T06:26:27;8;8;
63305;PMS5003;50735;52.060;1.248;2022-07-01T06:28:54;6;5;
63305;PMS5003;50735;52.060;1.248;2022-07-01T06:31:20;9;5;
63305;PMS5003;50735;52.060;1.248;2022-07-01T06:33:48;8;8;
63305;PMS5003;50735;52.060;1.248;2022-07-01T06:36:14;7;7;
63305;PMS5003;50735;52.060;1.248;2022-07-01T06:38:41;9;8;
63305;PMS5003;50735;52.060;1.248;2022-07-01T06:41:07;11;7;
63305;PMS5003;50735;52.060;1.248;2022-07-01T06:43:34;7;7;
63305;PMS5003;50735;52.060;1.248;2022-07-01T06:46:02;8;6;
63305;PMS5003;50735;52.060;1.248;2022-07-01T06:48:30;7;7;
63305;PMS5003;50735;52.060;1.248;2022-07-01T06:50:57;7;7;
63305;PMS5003;50735;52.060;1.248;2022-07-01T06:53:23;9;8;
63305;PMS5003;50735;52.060;1.248;2022-07-01T06:55:50;6;6;
63305;PMS5003;50735;52.060;1.248;2022-07-01T06:58:16;6;6;
63305;PMS5003;50735;52.060;1.248;2022-07-01T07:00:43;7;7;
63305;PMS5003;50735;52.060;1.248;2022-07-01T07:03:10;9;9;
63305;PMS5003;50735;52.060;1.248;2022-07-01T07:05:37;8;7;
63305;PMS5003;50735;52.060;1.248;2022-07-01T07:08:04;13;9;
63305;PMS5003;50735;52.060;1.248;2022-07-01T07:10:31;9;9;
63305;PMS5003;50735;52.060;1.248;2022-07-01T07:12:58;9;7;
63305;PMS5003;50735;52.060;1.248;2022-07-01T07:15:25;12;10;
63305;PMS5003;50735;52.060;1.248;2022-07-01T07:17:52;8;8;
63305;PMS5003;50735;52.060;1.248;2022-07-01T07:20:18;9;9;
63305;PMS5003;50735;52.060;1.248;2022-07-01T07:22:45;10;8;
63305;PMS5003;50735;52.060;1.248;2022-07-01T07:25:11;10;8;
63305;PMS5003;50735;52.060;1.248;2022-07-01T07:27:38;10;7;
63305;PMS5003;50735;52.060;1.248;2022-07-01T07:30:05;8;6;
63305;PMS5003;50735;52.060;1.248;2022-07-01T07:32:32;14;10;
63305;PMS5003;50735;52.060;1.248;2022-07-01T07:34:59;9;9;
63305;PMS5003;50735;52.060;1.248;2022-07-01T07:37:25;6;6;
63305;PMS5003;50735;52.060;1.248;2022-07-01T07:39:52;11;9;
63305;PMS5003;50735;52.060;1.248;2022-07-01T07:42:19;7;7;
63305;PMS5003;50735;52.060;1.248;2022-07-01T07:44:45;8;6;
63305;PMS5003;50735;52.060;1.248;2022-07-01T07:47:12;10;9;
63305;PMS5003;50735;52.060;1.248;2022-07-01T07:49:39;11;8;
63305;PMS5003;50735;52.060;1.248;2022-07-01T07:52:06;8;8;
63305;PMS5003;50735;52.060;1.248;2022-07-01T07:54:33;9;8;
63305;PMS5003;50735;52.060;1.248;2022-07-01T07:57:00;7;6;
63305;PMS5003;50735;52.060;1.248;2022-07-01T07:59:28;5;5;
63305;PMS5003;50735;52.060;1.248;2022-07-01T08:01:55;8;7;
63305;PMS5003;50735;52.060;1.248;2022-07-01T08:04:21;4;4;
63305;PMS5003;50735;52.060;1.248;2022-07-01T08:06:49;6;5;
63305;PMS5003;50735;52.060;1.248;2022-07-01T08:09:16;5;5;
63305;PMS5003;50735;52.060;1.248;2022-07-01T08:11:43;5;5;
63305;PMS5003;50735;52.060;1.248;2022-07-01T08:14:09;6;6;
63305;PMS5003;50735;52.060;1.248;2022-07-01T08:16:36;4;4;
63305;PMS5003;50735;52.060;1.248;2022-07-01T08:19:04;6;5;
63305;PMS5003;50735;52.060;1.248;2022-07-01T08:21:31;5;5;
63305;PMS5003;50735;52.060;1.248;2022-07-01T08:23:58;5;5;
63305;PMS5003;50735;52.060;1.248;2022-07-01T08:26:25;9;6;
63305;PMS5003;50735;52.060;1.248;2022-07-01T08:28:52;6;5;
63305;PMS5003;50735;52.060;1.248;2022-07-01T08:31:20;6;6;
63305;PMS5003;50735;52.060;1.248;2022-07-01T08:33:47;4;4;
63305;PMS5003;50735;52.060;1.248;2022-07-01T08:36:14;5;5;
63305;PMS5003;50735;52.060;1.248;2022-07-01T08:38:41;6;6;
63305;PMS5003;50735;52.060;1.248;2022-07-01T08:41:07;8;6;
63305;PMS5003;50735;52.060;1.248;2022-07-01T08:43:35;6;6;
63305;PMS5003;50735;52.060;1.248;2022-07-01T08:46:02;8;6;
63305;PMS5003;50735;52.060;1.248;2022-07-01T08:48:28;8;6;
63305;PMS5003;50735;52.060;1.248;2022-07-01T08:50:56;9;7;
63305;PMS5003;50735;52.060;1.248;2022-07-01T08:53:23;7;7;
63305;PMS5003;50735;52.060;1.248;2022-07-01T08:55:51;9;7;
63305;PMS5003;50735;52.060;1.248;2022-07-01T08:58:18;7;6;
63305;PMS5003;50735;52.060;1.248;2022-07-01T09:00:45;5;5;
63305;PMS5003;50735;52.060;1.248;2022-07-01T09:03:12;10;6;
63305;PMS5003;50735;52.060;1.248;2022-07-01T09:05:39;4;4;
63305;PMS5003;50735;52.060;1.248;2022-07-01T09:08:15;6;5;
63305;PMS5003;50735;52.060;1.248;2022-07-01T09:10:43;6;4;
63305;PMS5003;50735;52.060;1.248;2022-07-01T09:13:10;4;4;
63305;PMS5003;50735;52.060;1.248;2022-07-01T09:15:39;3;3;
63305;PMS5003;50735;52.060;1.248;2022-07-01T09:18:11;6;6;
63305;PMS5003;50735;52.060;1.248;2022-07-01T09:20:40;7;5;
63305;PMS5003;50735;52.060;1.248;2022-07-01T09:23:10;8;5;
63305;PMS5003;50735;52.060;1.248;2022-07-01T09:25:39;2;2;
63305;PMS5003;50735;52.060;1.248;2022-07-01T09:28:09;5;4;
63305;PMS5003;50735;52.060;1.248;2022-07-01T09:30:40;5;5;
63305;PMS5003;50735;52.060;1.248;2022-07-01T09:33:10;4;3;
63305;PMS5003;50735;52.060;1.248;2022-07-01T09:35:39;5;3;
63305;PMS5003;50735;52.060;1.248;2022-07-01T09:38:07;2;2;
63305;PMS5003;50735;52.060;1.248;2022-07-01T09:40:53;7;3;
63305;PMS5003;50735;52.060;1.248;2022-07-01T09:43:22;4;3;
63305;PMS5003;50735;52.060;1.248;2022-07-01T09:45:51;4;4;
63305;PMS5003;50735;52.060;1.248;2022-07-01T09:48:21;3;3;
63305;PMS5003;50735;52.060;1.248;2022-07-01T09:50:49;5;4;
63305;PMS5003;50735;52.060;1.248;2022-07-01T09:53:16;3;3;
63305;PMS5003;50735;52.060;1.248;2022-07-01T09:55:44;3;3;
63305;PMS5003;50735;52.060;1.248;2022-07-01T09:58:11;3;3;
63305;PMS5003;50735;52.060;1.248;2022-07-01T10:00:38;5;4;
63305;PMS5003;50735;52.060;1.248;2022-07-01T10:03:06;2;2;
63305;PMS5003;50735;52.060;1.248;2022-07-01T10:05:37;2;2;
63305;PMS5003;50735;52.060;1.248;2022-07-01T10:08:11;6;5;
63305;PMS5003;50735;52.060;1.248;2022-07-01T10:10:49;3;3;
63305;PMS5003;50735;52.060;1.248;2022-07-01T10:13:27;5;4;
63305;PMS5003;50735;52.060;1.248;2022-07-01T10:15:58;3;3;
63305;PMS5003;50735;52.060;1.248;2022-07-01T10:18:28;4;4;
63305;PMS5003;50735;52.060;1.248;2022-07-01T10:20:55;4;4;
63305;PMS5003;50735;52.060;1.248;2022-07-01T10:23:27;2;2;
63305;PMS5003;50735;52.060;1.248;2022-07-01T10:26:01;2;2;
63305;PMS5003;50735;52.060;1.248;2022-07-01T10:28:41;2;2;
63305;PMS5003;50735;52.060;1.248;2022-07-01T10:31:10;3;3;
63305;PMS5003;50735;52.060;1.248;2022-07-01T10:33:39;2;2;
63305;PMS5003;50735;52.060;1.248;2022-07-01T10:36:09;4;2;
63305;PMS5003;50735;52.060;1.248;2022-07-01T10:39:08;3;3;
63305;PMS5003;50735;52.060;1.248;2022-07-01T10:41:37;3;3;
63305;PMS5003;50735;52.060;1.248;2022-07-01T10:44:06;3;3;
63305;PMS5003;50735;52.060;1.248;2022-07-01T10:46:38;3;3;
63305;PMS5003;50735;52.060;1.248;2022-07-01T10:49:06;3;3;
63305;PMS5003;50735;52.060;1.248;2022-07-01T10:51:50;3;3;
63305;PMS5003;50735;52.060;1.248;2022-07-01T10:54:51;3;3;
63305;PMS5003;50735;52.060;1.248;2022-07-01T10:57:26;3;3;
63305;PMS5003;50735;52.060;1.248;2022-07-01T10:59:56;6;3;
63305;PMS5003;50735;52.060;1.248;2022-07-01T11:02:52;5;5;
63305;PMS5003;50735;52.060;1.248;2022-07-01T11:05:20;6;4;
63305;PMS5003;50735;52.060;1.248;2022-07-01T11:07:49;4;2;
63305;PMS5003;50735;52.060;1.248;2022-07-01T11:10:16;3;3;
63305;PMS5003;50735;52.060;1.248;2022-07-01T11:12:44;3;3;
63305;PMS5003;50735;52.060;1.248;2022-07-01T11:15:11;3;3;
63305;PMS5003;50735;52.060;1.248;2022-07-01T11:17:42;5;4;
63305;PMS5003;50735;52.060;1.248;2022-07-01T11:20:10;4;4;
63305;PMS5003;50735;52.060;1.248;2022-07-01T11:22:37;6;3;
63305;PMS5003;50735;52.060;1.248;2022-07-01T11:25:06;5;5;
63305;PMS5003;50735;52.060;1.248;2022-07-01T11:27:35;5;3;
63305;PMS5003;50735;52.060;1.248;2022-07-01T11:30:05;6;5;
63305;PMS5003;50735;52.060;1.248;2022-07-01T11:32:34;5;5;
63305;PMS5003;50735;52.060;1.248;2022-07-01T11:35:04;4;4;
63305;PMS5003;50735;52.060;1.248;2022-07-01T11:37:32;3;3;
63305;PMS5003;50735;52.060;1.248;2022-07-01T11:40:03;3;3;
63305;PMS5003;50735;52.060;1.248;2022-07-01T11:42:32;5;5;
63305;PMS5003;50735;52.060;1.248;2022-07-01T11:44:59;6;6;
63305;PMS5003;50735;52.060;1.248;2022-07-01T11:47:27;4;4;
63305;PMS5003;50735;52.060;1.248;2022-07-01T11:49:55;6;4;
63305;PMS5003;50735;52.060;1.248;2022-07-01T11:52:23;6;4;
63305;PMS5003;50735;52.060;1.248;2022-07-01T11:54:51;6;6;
63305;PMS5003;50735;52.060;1.248;2022-07-01T11:57:19;6;6;
63305;PMS5003;50735;52.060;1.248;2022-07-01T11:59:48;4;4;
63305;PMS5003;50735;52.060;1.248;2022-07-01T12:02:18;3;3;
63305;PMS5003;50735;52.060;1.248;2022-07-01T12:04:47;4;4;
63305;PMS5003;50735;52.060;1.248;2022-07-01T12:07:16;2;2;
63305;PMS5003;50735;52.060;1.248;2022-07-01T12:09:46;2;2;
63305;PMS5003;50735;52.060;1.248;2022-07-01T12:12:15;3;3;
63305;PMS5003;50735;52.060;1.248;2022-07-01T12:14:49;3;3;
63305;PMS5003;50735;52.060;1.248;2022-07-01T12:17:16;2;2;
63305;PMS5003;50735;52.060;1.248;2022-07-01T12:19:44;3;3;
63305;PMS5003;50735;52.060;1.248;2022-07-01T12:22:13;2;2;
63305;PMS5003;50735;52.060;1.248;2022-07-01T12:24:41;3;3;
63305;PMS5003;50735;52.060;1.248;2022-07-01T12:27:08;2;2;
63305;PMS5003;50735;52.060;1.248;2022-07-01T12:29:48;3;2;
63305;PMS5003;50735;52.060;1.248;2022-07-01T12:32:16;3;2;
63305;PMS5003;50735;52.060;1.248;2022-07-01T12:34:46;2;2;
63305;PMS5003;50735;52.060;1.248;2022-07-01T12:37:15;0;0;
63305;PMS5003;50735;52.060;1.248;2022-07-01T12:39:44;2;2;
63305;PMS5003;50735;52.060;1.248;2022-07-01T12:42:22;2;2;
63305;PMS5003;50735;52.060;1.248;2022-07-01T12:44:50;3;2;
63305;PMS5003;50735;52.060;1.248;2022-07-01T12:47:20;2;2;
63305;PMS5003;50735;52.060;1.248;2022-07-01T12:49:48;1;1;
63305;PMS5003;50735;52.060;1.248;2022-07-01T12:52:23;4;2;
63305;PMS5003;50735;52.060;1.248;2022-07-01T12:54:51;3;3;
63305;PMS5003;50735;52.060;1.248;2022-07-01T12:57:28;2;2;
63305;PMS5003;50735;52.060;1.248;2022-07-01T12:59:56;3;3;
63305;PMS5003;50735;52.060;1.248;2022-07-01T13:02:23;4;3;
63305;PMS5003;50735;52.060;1.248;2022-07-01T13:04:50;2;2;
63305;PMS5003;50735;52.060;1.248;2022-07-01T13:07:17;5;2;
63305;PMS5003;50735;52.060;1.248;2022-07-01T13:09:45;5;5;
63305;PMS5003;50735;52.060;1.248;2022-07-01T13:12:12;4;2;
63305;PMS5003;50735;52.060;1.248;2022-07-01T13:14:39;3;3;
63305;PMS5003;50735;52.060;1.248;2022-07-01T13:17:07;1;1;
63305;PMS5003;50735;52.060;1.248;2022-07-01T13:19:34;2;2;
63305;PMS5003;50735;52.060;1.248;2022-07-01T13:22:02;2;2;
63305;PMS5003;50735;52.060;1.248;2022-07-01T13:24:30;2;2;
63305;PMS5003;50735;52.060;1.248;2022-07-01T13:26:57;3;3;
63305;PMS5003;50735;52.060;1.248;2022-07-01T13:29:24;2;2;
63305;PMS5003;50735;52.060;1.248;2022-07-01T13:31:51;3;3;
63305;PMS5003;50735;52.060;1.248;2022-07-01T13:34:19;3;3;
63305;PMS5003;50735;52.060;1.248;2022-07-01T13:36:46;2;2;
63305;PMS5003;50735;52.060;1.248;2022-07-01T13:39:13;2;2;
63305;PMS5003;50735;52.060;1.248;2022-07-01T13:41:41;2;2;
63305;PMS5003;50735;52.060;1.248;2022-07-01T13:44:08;4;2;
63305;PMS5003;50735;52.060;1.248;2022-07-01T13:46:35;3;3;
63305;PMS5003;50735;52.060;1.248;2022-07-01T13:49:02;4;4;
63305;PMS5003;50735;52.060;1.248;2022-07-01T13:51:30;3;3;
63305;PMS5003;50735;52.060;1.248;2022-07-01T13:53:57;3;3;
63305;PMS5003;50735;52.060;1.248;2022-07-01T13:56:25;4;4;
63305;PMS5003;50735;52.060;1.248;2022-07-01T13:58:52;2;2;
63305;PMS5003;50735;52.060;1.248;2022-07-01T14:01:20;4;2;
63305;PMS5003;50735;52.060;1.248;2022-07-01T14:03:48;1;1;
63305;PMS5003;50735;52.060;1.248;2022-07-01T14:06:15;3;3;
63305;PMS5003;50735;52.060;1.248;2022-07-01T14:08:43;3;3;
63305;PMS5003;50735;52.060;1.248;2022-07-01T14:11:10;4;4;
63305;PMS5003;50735;52.060;1.248;2022-07-01T14:13:37;4;4;
63305;PMS5003;50735;52.060;1.248;2022-07-01T14:16:05;5;4;
63305;PMS5003;50735;52.060;1.248;2022-07-01T14:18:32;3;3;
63305;PMS5003;50735;52.060;1.248;2022-07-01T14:21:00;2;2;
63305;PMS5003;50735;52.060;1.248;2022-07-01T14:23:28;3;2;
63305;PMS5003;50735;52.060;1.248;2022-07-01T14:25:55;5;4;
63305;PMS5003;50735;52.060;1.248;2022-07-01T14:28:21;6;5;
63305;PMS5003;50735;52.060;1.248;2022-07-01T14:30:49;6;6;
63305;PMS5003;50735;52.060;1.248;2022-07-01T14:33:16;5;5;
63305;PMS5003;50735;52.060;1.248;2022-07-01T14:35:43;7;5;
63305;PMS5003;50735;52.060;1.248;2022-07-01T14:38:11;5;4;
63305;PMS5003;50735;52.060;1.248;2022-07-01T14:40:38;6;6;
63305;PMS5003;50735;52.060;1.248;2022-07-01T14:43:05;5;5;
63305;PMS5003;50735;52.060;1.248;2022-07-01T14:45:33;4;4;
63305;PMS5003;50735;52.060;1.248;2022-07-01T14:47:59;5;5;
63305;PMS5003;50735;52.060;1.248;2022-07-01T14:50:27;7;5;
63305;PMS5003;50735;52.060;1.248;2022-07-01T14:52:54;6;5;
63305;PMS5003;50735;52.060;1.248;2022-07-01T14:55:20;5;5;
63305;PMS5003;50735;52.060;1.248;2022-07-01T14:57:48;4;4;
63305;PMS5003;50735;52.060;1.248;2022-07-01T15:00:14;3;3;
63305;PMS5003;50735;52.060;1.248;2022-07-01T15:02:41;4;2;
63305;PMS5003;50735;52.060;1.248;2022-07-01T15:05:09;3;3;
63305;PMS5003;50735;52.060;1.248;2022-07-01T15:07:36;4;4;
63305;PMS5003;50735;52.060;1.248;2022-07-01T15:10:04;3;2;
63305;PMS5003;50735;52.060;1.248;2022-07-01T15:12:31;2;2;
63305;PMS5003;50735;52.060;1.248;2022-07-01T15:14:58;2;2;
63305;PMS5003;50735;52.060;1.248;2022-07-01T15:17:26;3;2;
63305;PMS5003;50735;52.060;1.248;2022-07-01T15:19:54;3;3;
63305;PMS5003;50735;52.060;1.248;2022-07-01T15:22:20;3;3;
63305;PMS5003;50735;52.060;1.248;2022-07-01T15:24:47;2;2;
63305;PMS5003;50735;52.060;1.248;2022-07-01T15:27:14;4;3;
63305;PMS5003;50735;52.060;1.248;2022-07-01T15:29:41;2;2;
63305;PMS5003;50735;52.060;1.248;2022-07-01T15:32:09;2;2;
63305;PMS5003;50735;52.060;1.248;2022-07-01T15:34:37;2;2;
63305;PMS5003;50735;52.060;1.248;2022-07-01T15:37:04;2;2;
63305;PMS5003;50735;52.060;1.248;2022-07-01T15:39:31;1;1;
63305;PMS5003;50735;52.060;1.248;2022-07-01T15:41:59;4;2;
63305;PMS5003;50735;52.060;1.248;2022-07-01T15:44:26;2;2;
63305;PMS5003;50735;52.060;1.248;2022-07-01T15:46:52;2;2;
63305;PMS5003;50735;52.060;1.248;2022-07-01T15:49:20;2;2;
63305;PMS5003;50735;52.060;1.248;2022-07-01T15:51:47;2;2;
63305;PMS5003;50735;52.060;1.248;2022-07-01T15:54:14;3;3;
63305;PMS5003;50735;52.060;1.248;2022-07-01T15:56:42;2;2;
63305;PMS5003;50735;52.060;1.248;2022-07-01T15:59:09;2;2;
63305;PMS5003;50735;52.060;1.248;2022-07-01T16:01:36;2;2;
63305;PMS5003;50735;52.060;1.248;2022-07-01T16:04:03;2;2;
63305;PMS5003;50735;52.060;1.248;2022-07-01T16:06:31;2;2;
63305;PMS5003;50735;52.060;1.248;2022-07-01T16:09:00;2;2;
63305;PMS5003;50735;52.060;1.248;2022-07-01T16:11:28;2;2;
63305;PMS5003;50735;52.060;1.248;2022-07-01T16:13:56;1;1;
63305;PMS5003;50735;52.060;1.248;2022-07-01T16:16:24;3;1;
63305;PMS5003;50735;52.060;1.248;2022-07-01T16:18:53;8;3;
63305;PMS5003;50735;52.060;1.248;2022-07-01T16:21:20;4;2;
63305;PMS5003;50735;52.060;1.248;2022-07-01T16:23:49;4;2;
63305;PMS5003;50735;52.060;1.248;2022-07-01T16:26:19;4;3;
63305;PMS5003;50735;52.060;1.248;2022-07-01T16:28:47;4;4;
63305;PMS5003;50735;52.060;1.248;2022-07-01T16:31:17;4;4;
63305;PMS5003;50735;52.060;1.248;2022-07-01T16:33:44;4;3;
63305;PMS5003;50735;52.060;1.248;2022-07-01T16:36:14;3;3;
63305;PMS5003;50735;52.060;1.248;2022-07-01T16:38:47;6;3;
63305;PMS5003;50735;52.060;1.248;2022-07-01T16:41:26;4;4;
63305;PMS5003;50735;52.060;1.248;2022-07-01T16:44:02;6;4;
63305;PMS5003;50735;52.060;1.248;2022-07-01T16:46:33;4;4;
63305;PMS5003;50735;52.060;1.248;2022-07-01T16:49:08;3;3;
63305;PMS5003;50735;52.060;1.248;2022-07-01T16:51:38;5;3;
63305;PMS5003;50735;52.060;1.248;2022-07-01T16:54:08;5;5;
63305;PMS5003;50735;52.060;1.248;2022-07-01T16:56:39;7;5;